Gunnison Crested Butte Regional Airport


Codes: KGUC/GUC
Name: Gunnison Crested Butte Regional Airport
City: Gunnison
Country: United States
Elevation: 7680 ft.
Wikipedia:

Photos at Gunnison Crested Butte Regional Airport


   Photos courtesy of SpottingLog. You can add your own sightings and photos by signing up for a free trial today.



No photos found.

Weather at Gunnison Crested Butte Regional Airport


Time (UTC)DescriptionTempratureWindCloud coverageVisibilityPressureHumidity
21-Jun-2024 12:00Light Rain11°C2 mph, W100%7189m1027hPa95%
21-Jun-2024 15:00Light Rain14°C2 mph, NE84%10000m1024hPa78%
21-Jun-2024 18:00Light Rain23°C2 mph, NW48%10000m1015hPa41%
21-Jun-2024 21:00Light Rain20°C11 mph, N37%10000m1013hPa49%
22-Jun-2024 00:00Light Rain16°C11 mph, W51%7417m1017hPa70%
22-Jun-2024 03:00Light Rain13°C2 mph, NE99%10000m1018hPa85%
22-Jun-2024 06:00Broken Clouds12°C2 mph, SE79%10000m1020hPa86%
22-Jun-2024 09:00Overcast Clouds11°C2 mph, N100%10000m1021hPa91%
22-Jun-2024 12:00Overcast Clouds10°C2 mph, NE100%10000m1022hPa92%
22-Jun-2024 15:00Overcast Clouds15°C0 mph, E100%10000m1021hPa71%
22-Jun-2024 18:00Broken Clouds23°C7 mph, SW69%10000m1017hPa37%
22-Jun-2024 21:00Scattered Clouds27°C16 mph, W35%10000m1013hPa20%
23-Jun-2024 00:00Scattered Clouds25°C11 mph, NW30%10000m1013hPa25%
23-Jun-2024 03:00Broken Clouds16°C7 mph, NW56%10000m1017hPa44%
23-Jun-2024 06:00Scattered Clouds12°C2 mph, N28%10000m1020hPa59%
23-Jun-2024 09:00Scattered Clouds10°C4 mph, NE27%10000m1022hPa66%
23-Jun-2024 12:00Scattered Clouds9°C4 mph, N40%10000m1022hPa69%
23-Jun-2024 15:00Overcast Clouds17°C2 mph, SE100%10000m1020hPa47%
23-Jun-2024 18:00Broken Clouds26°C2 mph, S78%10000m1015hPa23%
23-Jun-2024 21:00Broken Clouds28°C2 mph, S67%10000m1011hPa18%
24-Jun-2024 00:00Broken Clouds28°C11 mph, SW82%10000m1008hPa16%
24-Jun-2024 03:00Overcast Clouds19°C4 mph, SW100%10000m1013hPa44%
24-Jun-2024 06:00Overcast Clouds14°C2 mph, SW100%10000m1016hPa60%
24-Jun-2024 09:00Overcast Clouds13°C0 mph, NE91%10000m1017hPa66%
24-Jun-2024 12:00Overcast Clouds13°C2 mph, NE96%10000m1018hPa69%
24-Jun-2024 15:00Overcast Clouds19°C0 mph, SE99%10000m1016hPa48%
24-Jun-2024 18:00Broken Clouds26°C11 mph, SW78%10000m1011hPa27%
24-Jun-2024 21:00Broken Clouds28°C16 mph, NW82%10000m1007hPa22%
25-Jun-2024 00:00Broken Clouds27°C13 mph, NW60%10000m1007hPa23%
25-Jun-2024 03:00Light Rain16°C9 mph, N12%10000m1015hPa64%
25-Jun-2024 06:00Broken Clouds12°C2 mph, NE56%10000m1018hPa81%
25-Jun-2024 09:00Clear Sky11°C4 mph, NE0%10000m1018hPa86%
25-Jun-2024 12:00Clear Sky10°C2 mph, NE1%10000m1020hPa85%
25-Jun-2024 15:00Clear Sky18°C0 mph, E0%10000m1018hPa54%
25-Jun-2024 18:00Clear Sky26°C4 mph, S0%10000m1013hPa26%
25-Jun-2024 21:00Broken Clouds29°C7 mph, NW62%10000m1010hPa19%
26-Jun-2024 00:00Scattered Clouds28°C11 mph, NW39%10000m1009hPa18%
26-Jun-2024 03:00Clear Sky18°C4 mph, N3%10000m1013hPa40%
26-Jun-2024 06:00Clear Sky14°C4 mph, NE1%10000m1019hPa57%
26-Jun-2024 09:00Clear Sky12°C4 mph, NE0%10000m1021hPa72%